createdAt,value
2024-02-28T00:02:02.821Z,20.77
2024-02-28T00:04:29.345Z,23.58
2024-02-28T00:06:56.257Z,22.35
2024-02-28T00:09:22.901Z,21.55
2024-02-28T00:11:49.458Z,25.17
2024-02-28T00:14:16.135Z,21.12
2024-02-28T00:16:44.208Z,20.90
2024-02-28T00:19:14.935Z,23.55
2024-02-28T00:21:47.564Z,21.00
2024-02-28T00:24:14.343Z,22.58
2024-02-28T00:26:44.914Z,21.15
2024-02-28T00:29:11.477Z,23.20
2024-02-28T00:31:37.954Z,24.37
2024-02-28T00:34:04.643Z,23.05
2024-02-28T00:36:40.051Z,20.50
2024-02-28T00:39:15.094Z,21.92
2024-02-28T00:41:41.806Z,22.98
2024-02-28T00:44:08.383Z,21.60
2024-02-28T00:46:34.872Z,22.13
2024-02-28T00:49:01.397Z,19.23
2024-02-28T00:51:27.982Z,21.70
2024-02-28T00:53:54.572Z,21.50
2024-02-28T00:56:21.108Z,20.17
2024-02-28T00:58:47.568Z,21.58
2024-02-28T01:01:14.225Z,24.15
2024-02-28T01:03:40.781Z,24.30
2024-02-28T01:06:07.350Z,26.25
2024-02-28T01:08:33.794Z,23.27
2024-02-28T01:11:00.462Z,23.55
2024-02-28T01:13:27.014Z,23.85
2024-02-28T01:15:53.656Z,23.50
2024-02-28T01:18:20.213Z,27.52
2024-02-28T01:20:46.769Z,26.73
2024-02-28T01:23:13.291Z,23.75
2024-02-28T01:25:39.735Z,26.98
2024-02-28T01:28:06.276Z,31.02
2024-02-28T01:30:32.773Z,25.77
2024-02-28T01:32:59.456Z,26.52
2024-02-28T01:35:25.968Z,31.25
2024-02-28T01:37:52.718Z,27.37
2024-02-28T01:40:19.258Z,27.92
2024-02-28T01:42:45.783Z,28.70
2024-02-28T01:45:14.920Z,22.65
2024-02-28T01:47:44.929Z,25.65
2024-02-28T01:50:13.026Z,25.42
2024-02-28T01:52:40.792Z,29.37
2024-02-28T01:55:08.013Z,26.27
2024-02-28T01:57:45.727Z,26.40
2024-02-28T02:00:14.445Z,27.90
2024-02-28T02:02:41.160Z,24.80
2024-02-28T02:05:08.211Z,25.50
2024-02-28T02:10:30.096Z,23.58
2024-02-28T02:13:05.375Z,32.38
2024-02-28T02:15:32.434Z,23.62
2024-02-28T02:18:02.263Z,24.12
2024-02-28T02:20:33.326Z,22.33
2024-02-28T02:23:02.350Z,24.73
2024-02-28T02:25:28.868Z,25.12
2024-02-28T02:27:55.367Z,25.98
2024-02-28T02:30:22.049Z,26.08
2024-02-28T02:32:48.635Z,22.27
2024-02-28T02:35:15.243Z,23.12
2024-02-28T02:37:46.954Z,27.73
2024-02-28T02:40:13.640Z,21.73
2024-02-28T02:42:40.735Z,24.12
2024-02-28T02:45:07.569Z,25.02
2024-02-28T02:47:34.168Z,25.05
2024-02-28T02:50:09.454Z,22.37
2024-02-28T02:52:37.232Z,21.95
2024-02-28T02:55:04.176Z,22.27
2024-02-28T02:57:33.282Z,23.65
2024-02-28T02:59:59.871Z,20.23
2024-02-28T03:02:26.374Z,22.62
2024-02-28T03:04:52.869Z,22.67
2024-02-28T03:07:19.439Z,22.90
2024-02-28T03:09:45.977Z,25.80
2024-02-28T03:12:12.775Z,26.70
2024-02-28T03:14:39.337Z,25.35
2024-02-28T03:17:05.959Z,23.33
2024-02-28T03:19:32.640Z,25.58
2024-02-28T03:21:59.207Z,22.02
2024-02-28T03:24:25.789Z,22.77
2024-02-28T03:26:52.316Z,22.30
2024-02-28T03:29:18.743Z,22.00
2024-02-28T03:31:45.248Z,23.67
2024-02-28T03:34:11.773Z,24.70
2024-02-28T03:36:38.314Z,28.87
2024-02-28T03:39:05.050Z,21.60
2024-02-28T03:41:31.521Z,22.08
2024-02-28T03:43:58.008Z,25.00
2024-02-28T03:46:24.459Z,23.05
2024-02-28T03:48:51.577Z,21.55
2024-02-28T03:51:18.128Z,23.70
2024-02-28T03:56:27.346Z,21.90
2024-02-28T03:58:54.446Z,22.62
2024-02-28T04:01:21.124Z,21.20
2024-02-28T04:03:53.062Z,21.62
2024-02-28T04:06:22.944Z,19.23
2024-02-28T04:08:49.561Z,19.65
2024-02-28T04:11:16.089Z,21.33
2024-02-28T04:13:42.597Z,22.13
2024-02-28T04:16:11.893Z,22.92
2024-02-28T04:18:38.406Z,20.20
2024-02-28T04:21:05.218Z,22.75
2024-02-28T04:23:31.649Z,20.95
2024-02-28T04:25:58.088Z,19.48
2024-02-28T04:28:24.585Z,20.52
2024-02-28T04:30:51.127Z,20.65
2024-02-28T04:33:17.778Z,20.12
2024-02-28T04:35:44.492Z,20.37
2024-02-28T04:38:11.021Z,21.27
2024-02-28T04:40:37.691Z,23.30
2024-02-28T04:43:04.918Z,20.20
2024-02-28T04:45:31.456Z,22.60
2024-02-28T04:47:59.097Z,31.45
2024-02-28T04:50:25.670Z,25.45
2024-02-28T04:52:52.162Z,30.35
2024-02-28T04:55:19.302Z,22.30
2024-02-28T04:57:45.823Z,21.92
2024-02-28T05:00:13.149Z,18.70
2024-02-28T05:02:39.647Z,22.83
2024-02-28T05:05:06.699Z,19.27
2024-02-28T05:07:39.776Z,20.05
2024-02-28T06:45:19.732Z,25.95
2024-02-28T07:46:22.855Z,23.42
2024-02-28T08:04:36.672Z,23.23
2024-02-28T08:26:20.242Z,23.67
2024-02-28T11:55:27.173Z,21.42
2024-02-28T12:47:05.552Z,18.75
2024-02-28T18:15:00.482Z,25.37
2024-02-28T18:17:36.903Z,24.80
2024-02-28T18:20:13.493Z,26.17
2024-02-28T19:10:28.694Z,28.77
2024-02-28T19:12:55.240Z,22.58
2024-02-28T19:15:21.694Z,20.83
2024-02-28T19:17:48.200Z,23.75
2024-02-28T19:20:14.647Z,22.87
2024-02-28T19:22:41.172Z,27.30
2024-02-28T19:25:08.065Z,27.90
2024-02-28T19:27:34.943Z,27.85
2024-02-28T19:30:01.469Z,25.35
2024-02-28T19:32:28.044Z,30.52
2024-02-28T19:34:54.601Z,25.90
2024-02-28T19:37:21.389Z,25.52
2024-02-28T19:39:48.064Z,26.70
2024-02-28T19:42:14.632Z,25.55
2024-02-28T19:44:41.092Z,26.23
2024-02-28T19:47:07.585Z,26.02
2024-02-28T19:49:37.286Z,27.90
2024-02-28T19:52:04.049Z,27.05
2024-02-28T19:54:30.769Z,23.75
2024-02-28T19:56:57.368Z,25.55
2024-02-28T19:59:24.540Z,23.70
2024-02-28T20:01:51.162Z,24.55
2024-02-28T20:04:17.686Z,24.98
2024-02-28T20:06:44.598Z,26.65
2024-02-28T20:09:11.561Z,28.62
2024-02-28T20:11:38.459Z,26.67
2024-02-28T20:14:05.002Z,23.83
2024-02-28T20:16:31.826Z,26.67
2024-02-28T20:18:58.362Z,23.62
2024-02-28T20:21:28.369Z,28.65
2024-02-28T20:23:57.598Z,25.73
2024-02-28T20:26:25.754Z,24.75
2024-02-28T20:28:53.587Z,26.77
2024-02-28T20:31:20.303Z,24.48
2024-02-28T20:33:46.974Z,25.52
2024-02-28T20:36:14.389Z,25.70
2024-02-28T20:38:40.980Z,25.27
2024-02-28T20:41:07.456Z,28.58
2024-02-28T20:43:33.974Z,24.27
2024-02-28T20:46:00.611Z,24.40
2024-02-28T20:48:27.722Z,29.05
2024-02-28T20:50:55.541Z,27.90
2024-02-28T20:53:24.197Z,28.35
2024-02-28T20:55:51.269Z,31.70
2024-02-28T20:58:17.744Z,27.45
2024-02-28T21:00:44.446Z,31.30
2024-02-28T21:03:10.998Z,31.08
2024-02-28T21:05:37.509Z,28.40
2024-02-28T21:08:04.244Z,28.75
2024-02-28T21:10:30.724Z,28.17
2024-02-28T21:12:57.290Z,29.75
2024-02-28T21:15:23.817Z,29.50
2024-02-28T21:17:50.466Z,31.42
2024-02-28T21:20:17.316Z,29.85
2024-02-28T21:22:44.042Z,31.00
2024-02-28T21:25:10.816Z,29.73
2024-02-28T21:27:37.490Z,30.23
2024-02-28T21:30:06.187Z,29.98
2024-02-28T21:32:33.343Z,35.55
2024-02-28T21:34:59.865Z,30.17
2024-02-28T21:37:26.352Z,29.40
2024-02-28T21:39:52.904Z,30.35
2024-02-28T21:42:19.381Z,30.15
2024-02-28T21:44:45.874Z,28.75
2024-02-28T21:47:14.023Z,30.27
2024-02-28T21:49:43.629Z,31.87
2024-02-28T21:52:11.520Z,28.38
2024-02-28T21:54:42.511Z,28.00
2024-02-28T21:57:09.275Z,31.52
2024-02-28T21:59:35.906Z,28.10
2024-02-28T22:02:03.218Z,29.05
2024-02-28T22:04:29.839Z,28.52
2024-02-28T22:06:57.457Z,28.08
2024-02-28T22:09:24.018Z,30.58
2024-02-28T22:11:50.520Z,29.98
2024-02-28T22:14:17.622Z,29.67
2024-02-28T22:16:44.200Z,32.08
2024-02-28T22:19:13.347Z,29.63
2024-02-28T22:21:40.713Z,34.40
2024-02-28T22:24:09.094Z,30.85
2024-02-28T22:26:35.598Z,33.05
2024-02-28T22:29:02.289Z,32.15
2024-02-28T22:31:29.146Z,32.28
2024-02-28T22:33:55.671Z,31.42
2024-02-28T22:36:22.165Z,27.62
2024-02-28T22:38:50.528Z,30.80
2024-02-28T22:41:23.527Z,31.60
2024-02-28T22:46:16.628Z,33.20
2024-02-28T22:48:43.210Z,42.25
2024-02-28T22:51:09.650Z,39.03
2024-02-28T22:53:36.725Z,33.25
2024-02-28T22:56:03.820Z,30.85
2024-02-28T22:58:30.289Z,31.73
2024-02-28T23:00:56.871Z,31.80
